Terminal Aerodrome Forecast
Issued by NWS

Home | Current Version | Previous Version | Text Only | Print | Product List | Glossary On
Versions: 1 2 3 4 5 6 7 8 9 10 11 12
000
FTUS45 KREV 252300
TAFMMH
TAF
KMMH 252330Z 2600/2624 22025G40KT P6SM SCT150
     FM260400 28012G22KT P6SM SCT100
     FM261700 06008KT P6SM SKC
      AMD NOT SKED 2602/2614=

USA.gov is the U.S. government's official web portal to all federal, state and local government web resources and services.